Time;durP1;ratioP1;P1;durP2;ratioP2;P2;SDS_P1;SDS_P2;PMS_P1;PMS_P2;Temp;Humidity;BMP_temperature;BMP_pressure;BME280_temperature;BME280_humidity;BME280_pressure;Samples;Min_cycle;Max_cycle;Signal;HPM_P1;HPM_P2
2024/02/12 00:00:18;;;;;;;0.55;0.47;;;;;;;4.48;100.00;94481.06;1025858;28;20030;-66
2024/02/12 00:00:49;;;;;;;0.10;0.10;;;;;;;4.52;100.00;94489.09;1027244;28;20451;-65
2024/02/12 00:01:19;;;;;;;0.00;0.00;;;;;;;4.46;100.00;94472.75;1027124;28;20061;-66
2024/02/12 00:01:55;;;;;;;0.15;0.15;;;;;;;4.58;100.00;94484.72;1027010;28;20118;-66
2024/02/12 00:02:28;;;;;;;0.40;0.30;;;;;;;4.61;100.00;94484.22;1020358;28;20028;-65
2024/02/12 00:02:59;;;;;;;0.30;0.30;;;;;;;4.63;100.00;94488.13;1024029;28;20270;-65
2024/02/12 00:03:31;;;;;;;0.00;0.00;;;;;;;4.65;100.00;94485.25;1021205;28;20294;-65
2024/02/12 00:04:02;;;;;;;0.20;0.20;;;;;;;4.68;100.00;94484.75;1026890;28;20665;-66
2024/02/12 00:04:36;;;;;;;0.00;0.00;;;;;;;4.67;100.00;94488.38;1028217;28;20357;-65
2024/02/12 00:05:10;;;;;;;0.10;0.00;;;;;;;4.65;100.00;94486.03;1028024;28;20277;-65
2024/02/12 00:05:40;;;;;;;0.10;0.00;;;;;;;4.66;100.00;94485.00;1029167;28;20716;-65
2024/02/12 00:06:11;;;;;;;0.00;0.00;;;;;;;4.70;100.00;94493.06;1031045;28;20273;-66
2024/02/12 00:06:42;;;;;;;0.00;0.00;;;;;;;4.66;100.00;94486.81;1031406;28;20405;-65
2024/02/12 00:07:19;;;;;;;0.10;0.10;;;;;;;4.68;100.00;94485.53;1027766;28;20337;-65
2024/02/12 00:07:49;;;;;;;0.00;0.00;;;;;;;4.67;100.00;94483.19;1035807;28;20275;-65
2024/02/12 00:08:20;;;;;;;0.05;0.05;;;;;;;4.65;100.00;94491.22;1034728;28;20280;-65
2024/02/12 00:08:51;;;;;;;0.00;0.00;;;;;;;4.66;100.00;94489.41;1032004;28;20037;-66
2024/02/12 00:09:22;;;;;;;0.35;0.35;;;;;;;4.63;100.00;94484.75;1034776;28;20048;-65
2024/02/12 00:09:53;;;;;;;0.10;0.10;;;;;;;4.65;100.00;94488.63;1033987;28;20042;-64
2024/02/12 00:10:23;;;;;;;0.28;0.28;;;;;;;4.66;100.00;94479.81;1034975;28;20812;-65
2024/02/12 00:10:54;;;;;;;0.00;0.00;;;;;;;4.65;100.00;94480.06;1030708;28;20085;-64
2024/02/12 00:11:24;;;;;;;0.00;0.00;;;;;;;4.65;100.00;94485.25;1026975;28;20106;-65
2024/02/12 00:11:55;;;;;;;0.00;0.00;;;;;;;4.64;100.00;94484.47;1030584;28;20027;-66
2024/02/12 00:12:25;;;;;;;0.38;0.30;;;;;;;4.60;100.00;94480.06;1030332;28;20365;-66
2024/02/12 00:12:56;;;;;;;0.15;0.15;;;;;;;4.59;100.00;94487.06;1027044;28;20034;-65
2024/02/12 00:13:27;;;;;;;0.22;0.13;;;;;;;4.59;100.00;94479.25;1026698;28;20110;-64
2024/02/12 00:13:57;;;;;;;0.10;0.10;;;;;;;4.55;100.00;94478.22;1024895;28;20030;-67
2024/02/12 00:14:28;;;;;;;0.28;0.28;;;;;;;4.59;100.00;94486.28;1031241;28;20027;-65
2024/02/12 00:15:01;;;;;;;0.20;0.13;;;;;;;4.62;100.00;94480.56;1038892;28;20013;-65
2024/02/12 00:15:31;;;;;;;0.65;0.52;;;;;;;4.56;100.00;94473.78;1035404;28;20072;-65
2024/02/12 00:16:02;;;;;;;0.20;0.20;;;;;;;4.57;100.00;94485.75;1034818;28;20260;-65
2024/02/12 00:16:32;;;;;;;0.22;0.00;;;;;;;4.52;100.00;94483.91;1033266;28;20113;-65
2024/02/12 00:17:05;;;;;;;0.00;0.00;;;;;;;4.47;100.00;94483.91;1031255;28;20030;-66
2024/02/12 00:17:35;;;;;;;0.10;0.10;;;;;;;4.46;100.00;94483.13;1035061;28;20395;-66
2024/02/12 00:18:06;;;;;;;0.25;0.10;;;;;;;4.48;100.00;94478.44;1038390;28;20262;-66
2024/02/12 00:18:36;;;;;;;0.00;0.00;;;;;;;4.48;100.00;94485.47;1031732;28;20125;-65
2024/02/12 00:19:09;;;;;;;0.00;0.00;;;;;;;4.46;100.00;94475.34;1034986;28;20042;-65
2024/02/12 00:19:40;;;;;;;0.10;0.10;;;;;;;4.43;100.00;94478.44;1034509;28;20207;-65
2024/02/12 00:20:14;;;;;;;3.72;2.38;;;;;;;4.41;100.00;94479.72;1031768;28;20081;-65
2024/02/12 00:20:44;;;;;;;0.35;0.32;;;;;;;4.42;100.00;94481.28;1034969;28;20509;-65
2024/02/12 00:21:15;;;;;;;0.00;0.00;;;;;;;4.41;100.00;94479.72;1036648;28;20252;-65
2024/02/12 00:21:48;;;;;;;0.20;0.20;;;;;;;4.43;100.00;94488.84;1039398;28;20535;-67
2024/02/12 00:22:20;;;;;;;0.08;0.08;;;;;;;4.41;100.00;94490.13;1039436;28;20442;-65
2024/02/12 00:22:50;;;;;;;0.00;0.00;;;;;;;4.41;100.00;94490.13;1035157;28;20914;-66
2024/02/12 00:23:21;;;;;;;0.63;0.63;;;;;;;4.42;100.00;94482.06;1035059;28;20265;-65
2024/02/12 00:23:51;;;;;;;0.00;0.00;;;;;;;4.35;100.00;94476.31;1031769;28;20074;-66
2024/02/12 00:24:22;;;;;;;0.00;0.00;;;;;;;4.36;100.00;94488.28;1030957;28;20121;-65
2024/02/12 00:24:52;;;;;;;0.00;0.00;;;;;;;4.35;100.00;94486.72;1038937;28;20028;-65
2024/02/12 00:25:24;;;;;;;3.67;0.20;;;;;;;4.34;100.00;94490.34;1034893;28;20029;-65
2024/02/12 00:25:55;;;;;;;0.00;0.00;;;;;;;4.39;100.00;94492.97;1038826;28;20026;-65
2024/02/12 00:26:25;;;;;;;0.00;0.00;;;;;;;4.41;100.00;94490.13;1032414;28;20258;-66
2024/02/12 00:27:00;;;;;;;0.08;0.08;;;;;;;4.42;100.00;94482.06;1035072;28;20028;-66
2024/02/12 00:27:31;;;;;;;0.32;0.28;;;;;;;4.45;100.00;94491.16;1034718;28;20006;-65
2024/02/12 00:28:02;;;;;;;0.00;0.00;;;;;;;4.45;100.00;94496.38;1035582;28;20272;-66
2024/02/12 00:28:33;;;;;;;0.08;0.08;;;;;;;4.43;100.00;94494.03;1035517;28;20108;-65
2024/02/12 00:29:05;;;;;;;0.17;0.17;;;;;;;4.42;100.00;94489.84;1037900;28;20321;-65
2024/02/12 00:29:37;;;;;;;0.00;0.00;;;;;;;4.42;100.00;94495.03;1034259;28;20295;-66
2024/02/12 00:30:08;;;;;;;0.10;0.10;;;;;;;4.40;100.00;94489.34;1031229;28;20257;-65
2024/02/12 00:30:39;;;;;;;0.00;0.00;;;;;;;4.41;100.00;94488.28;1022629;28;20675;-66
2024/02/12 00:31:12;;;;;;;0.10;0.10;;;;;;;4.44;100.00;94490.38;1023019;28;20259;-66
2024/02/12 00:31:42;;;;;;;0.40;0.10;;;;;;;4.46;100.00;94488.34;1027420;28;20818;-65
2024/02/12 00:32:13;;;;;;;0.25;0.20;;;;;;;4.46;100.00;94495.31;1031762;28;20019;-65
2024/02/12 00:32:43;;;;;;;1.55;0.20;;;;;;;4.46;100.00;94500.50;1038973;28;20766;-66
2024/02/12 00:33:14;;;;;;;0.15;0.10;;;;;;;4.44;100.00;94498.19;1038858;28;20032;-65
2024/02/12 00:33:48;;;;;;;0.00;0.00;;;;;;;4.45;100.00;94497.13;1034768;28;20026;-65
2024/02/12 00:34:23;;;;;;;0.00;0.00;;;;;;;4.46;100.00;94496.13;1034564;28;20029;-65
2024/02/12 00:34:57;;;;;;;0.28;0.28;;;;;;;4.47;100.00;94497.69;1032012;28;20057;-65
2024/02/12 00:35:27;;;;;;;0.00;0.00;;;;;;;4.47;100.00;94495.06;1028349;28;20703;-66
2024/02/12 00:35:58;;;;;;;0.00;0.00;;;;;;;4.49;100.00;94494.81;1033304;28;20265;-66
2024/02/12 00:36:29;;;;;;;0.45;0.38;;;;;;;4.51;100.00;94499.78;1033744;28;20506;-65
2024/02/12 00:36:59;;;;;;;0.00;0.00;;;;;;;4.48;100.00;94499.22;1031170;28;20041;-66
2024/02/12 00:37:33;;;;;;;0.05;0.05;;;;;;;4.48;100.00;94495.84;1029567;28;20029;-65
2024/02/12 00:38:04;;;;;;;0.03;0.00;;;;;;;4.48;100.00;94501.81;1026762;28;20027;-66
2024/02/12 00:38:35;;;;;;;0.00;0.00;;;;;;;4.53;100.00;94498.47;1023342;28;20271;-65
2024/02/12 00:39:09;;;;;;;0.00;0.00;;;;;;;4.58;100.00;94495.88;1029391;28;20026;-65
2024/02/12 00:39:39;;;;;;;0.22;0.22;;;;;;;4.56;100.00;94489.38;1030319;28;20024;-66
2024/02/12 00:40:11;;;;;;;0.03;0.03;;;;;;;4.59;100.00;94497.44;1028196;28;20288;-66
2024/02/12 00:40:42;;;;;;;0.00;0.00;;;;;;;4.58;100.00;94500.31;1030769;28;20030;-66
2024/02/12 00:41:13;;;;;;;0.40;0.40;;;;;;;4.61;100.00;94497.19;1031026;28;20429;-65
2024/02/12 00:41:50;;;;;;;0.38;0.35;;;;;;;4.60;100.00;94498.25;1030997;28;20023;-65
2024/02/12 00:42:24;;;;;;;0.00;0.00;;;;;;;4.62;100.00;94496.94;1023976;28;20016;-66
2024/02/12 00:42:57;;;;;;;0.20;0.20;;;;;;;4.65;100.00;94501.63;1026625;28;20273;-65
2024/02/12 00:43:28;;;;;;;0.10;0.10;;;;;;;4.65;100.00;94498.25;1028512;28;20270;-66
2024/02/12 00:43:59;;;;;;;0.00;0.00;;;;;;;4.69;100.00;94507.09;1029633;28;20266;-65
2024/02/12 00:44:33;;;;;;;0.10;0.10;;;;;;;4.70;100.00;94504.25;1038937;28;20682;-65
2024/02/12 00:45:08;;;;;;;0.00;0.00;;;;;;;4.73;100.00;94500.38;1038730;28;20056;-67
2024/02/12 00:45:41;;;;;;;2.08;0.63;;;;;;;4.74;100.00;94499.31;1036163;28;20268;-66
2024/02/12 00:46:12;;;;;;;0.00;0.00;;;;;;;4.75;100.00;94503.47;1038681;28;20280;-66
2024/02/12 00:46:47;;;;;;;0.30;0.30;;;;;;;4.75;100.00;94500.09;1037834;28;20276;-65
2024/02/12 00:47:17;;;;;;;0.00;0.00;;;;;;;4.81;100.00;94502.44;1035999;28;20073;-65
2024/02/12 00:47:50;;;;;;;0.20;0.20;;;;;;;4.80;100.00;94502.72;1038789;28;20267;-65
2024/02/12 00:48:20;;;;;;;0.30;0.30;;;;;;;4.79;100.00;94507.09;1031706;28;20100;-65
2024/02/12 00:48:51;;;;;;;0.43;0.43;;;;;;;4.82;100.00;94501.41;1031117;28;20333;-65
2024/02/12 00:49:22;;;;;;;0.20;0.20;;;;;;;4.81;100.00;94504.28;1034690;28;20030;-65
2024/02/12 00:49:53;;;;;;;0.17;0.17;;;;;;;4.80;100.00;94513.88;1030394;28;20026;-65
2024/02/12 00:50:25;;;;;;;0.10;0.10;;;;;;;4.80;100.00;94503.50;1034750;28;20316;-66
2024/02/12 00:50:55;;;;;;;0.13;0.05;;;;;;;4.81;100.00;94505.06;1026841;28;20129;-66
2024/02/12 00:51:26;;;;;;;0.15;0.15;;;;;;;4.78;100.00;94510.75;1023364;28;20638;-67
2024/02/12 00:51:57;;;;;;;0.00;0.00;;;;;;;4.81;100.00;94514.66;1026694;28;20034;-65
2024/02/12 00:52:28;;;;;;;0.20;0.03;;;;;;;4.78;100.00;94502.97;1027751;28;20039;-66
2024/02/12 00:52:58;;;;;;;0.00;0.00;;;;;;;4.84;100.00;94501.16;1031697;28;20043;-66
2024/02/12 00:53:28;;;;;;;0.10;0.10;;;;;;;4.84;100.00;94504.53;1035711;28;20033;-65
2024/02/12 00:53:59;;;;;;;0.10;0.10;;;;;;;4.86;100.00;94507.69;1044137;28;20024;-65
2024/02/12 00:54:35;;;;;;;0.00;0.00;;;;;;;4.84;100.00;94494.16;1043692;28;20063;-65
2024/02/12 00:55:06;;;;;;;0.20;0.20;;;;;;;4.92;100.00;94506.63;1037612;28;20018;-65
2024/02/12 00:55:39;;;;;;;0.00;0.00;;;;;;;4.91;100.00;94509.50;1038579;28;20487;-65
2024/02/12 00:56:09;;;;;;;0.00;0.00;;;;;;;4.93;100.00;94503.00;1035615;28;20045;-65
2024/02/12 00:56:43;;;;;;;0.35;0.35;;;;;;;4.93;100.00;94503.00;1035749;28;20505;-64
2024/02/12 00:57:14;;;;;;;0.00;0.00;;;;;;;4.94;100.00;94512.34;1031479;28;20030;-66
2024/02/12 00:57:44;;;;;;;0.17;0.17;;;;;;;4.93;100.00;94504.81;1032372;28;20676;-66
2024/02/12 00:58:14;;;;;;;0.20;0.10;;;;;;;4.93;100.00;94499.63;1036024;28;20022;-67
2024/02/12 00:58:45;;;;;;;0.30;0.30;;;;;;;4.95;100.00;94500.13;1035618;28;20022;-66
2024/02/12 00:59:15;;;;;;;0.00;0.00;;;;;;;4.94;100.00;94504.56;1031693;28;20516;-65
2024/02/12 00:59:46;;;;;;;0.00;0.00;;;;;;;4.95;100.00;94502.72;1026714;28;20094;-66
2024/02/12 01:00:17;;;;;;;0.00;0.00;;;;;;;4.93;100.00;94500.41;1024918;28;20122;-65
2024/02/12 01:00:49;;;;;;;2.72;1.13;;;;;;;5.00;100.00;94512.34;1025404;28;20038;-65
2024/02/12 01:01:20;;;;;;;0.00;0.00;;;;;;;5.01;100.00;94504.31;1036285;28;20053;-65
2024/02/12 01:01:50;;;;;;;0.00;0.00;;;;;;;5.02;100.00;94499.88;1038514;28;20025;-63
2024/02/12 01:02:22;;;;;;;0.17;0.10;;;;;;;5.00;100.00;94497.56;1032950;28;20498;-65
2024/02/12 01:02:53;;;;;;;0.35;0.30;;;;;;;4.93;100.00;94490.00;1040010;28;20477;-66
2024/02/12 01:03:25;;;;;;;0.20;0.10;;;;;;;5.00;100.00;94501.94;1036888;28;20092;-67
2024/02/12 01:03:57;;;;;;;0.00;0.00;;;;;;;5.00;100.00;94501.94;1036378;28;21198;-65
2024/02/12 01:04:28;;;;;;;0.10;0.10;;;;;;;4.96;100.00;94494.69;1028908;28;20110;-66
2024/02/12 01:05:00;;;;;;;0.52;0.35;;;;;;;5.00;100.00;94499.34;1025302;28;20027;-65
2024/02/12 01:05:30;;;;;;;0.73;0.55;;;;;;;5.01;100.00;94503.53;1024188;28;20042;-66
2024/02/12 01:06:01;;;;;;;0.00;0.00;;;;;;;5.01;100.00;94500.94;1025562;28;20062;-66
2024/02/12 01:06:31;;;;;;;0.10;0.10;;;;;;;5.02;100.00;94499.88;1028923;28;20050;-66
2024/02/12 01:07:03;;;;;;;0.17;0.17;;;;;;;5.03;100.00;94497.03;1032028;28;20033;-65
2024/02/12 01:07:35;;;;;;;0.00;0.00;;;;;;;5.00;100.00;94488.97;1034544;28;20038;-65
2024/02/12 01:08:06;;;;;;;0.00;0.00;;;;;;;5.03;100.00;94486.66;1028632;28;20019;-65
2024/02/12 01:08:38;;;;;;;0.55;0.40;;;;;;;5.03;100.00;94489.25;1024651;28;20462;-67
2024/02/12 01:09:12;;;;;;;0.13;0.13;;;;;;;5.06;100.00;94490.53;1025012;28;20032;-68
2024/02/12 01:09:43;;;;;;;0.20;0.20;;;;;;;5.03;100.00;94488.44;1027923;28;20145;-67
2024/02/12 01:10:13;;;;;;;0.00;0.00;;;;;;;5.07;100.00;94492.13;1022482;28;20303;-65
2024/02/12 01:10:45;;;;;;;0.03;0.03;;;;;;;5.07;100.00;94487.69;1032362;28;20069;-66
2024/02/12 01:11:16;;;;;;;0.05;0.05;;;;;;;5.06;100.00;94490.53;1032336;28;20046;-65
2024/02/12 01:11:46;;;;;;;0.08;0.08;;;;;;;5.07;100.00;94487.69;1032506;28;20030;-64
2024/02/12 01:12:17;;;;;;;1.02;0.55;;;;;;;5.07;100.00;94486.91;1039342;28;20508;-65
2024/02/12 01:12:47;;;;;;;0.00;0.00;;;;;;;5.10;100.00;94491.59;1039983;28;20030;-65
2024/02/12 01:13:18;;;;;;;0.00;0.00;;;;;;;5.11;100.00;94493.94;1039774;28;20045;-66
2024/02/12 01:13:49;;;;;;;0.13;0.13;;;;;;;5.10;100.00;94489.00;1043575;28;20032;-66
2024/02/12 01:14:20;;;;;;;0.15;0.15;;;;;;;5.13;100.00;94493.66;1039667;28;20051;-63
2024/02/12 01:14:51;;;;;;;0.13;0.13;;;;;;;5.11;100.00;94480.94;1035574;28;20640;-65
2024/02/12 01:15:21;;;;;;;0.10;0.10;;;;;;;5.08;100.00;94488.47;1036226;28;20946;-66
2024/02/12 01:15:51;;;;;;;0.00;0.00;;;;;;;5.11;100.00;94483.53;1036066;28;20037;-66
2024/02/12 01:16:22;;;;;;;0.03;0.03;;;;;;;5.12;100.00;94484.31;1031431;28;20026;-65
2024/02/12 01:16:53;;;;;;;0.28;0.28;;;;;;;5.11;100.00;94482.75;1031779;28;20512;-66
2024/02/12 01:17:24;;;;;;;0.10;0.10;;;;;;;5.09;100.00;94480.38;1035216;28;20096;-65
2024/02/12 01:17:54;;;;;;;0.00;0.00;;;;;;;5.09;100.00;94484.81;1035355;28;20045;-65
2024/02/12 01:18:25;;;;;;;0.00;0.00;;;;;;;5.07;100.00;94484.31;1031641;28;20520;-65
2024/02/12 01:18:55;;;;;;;0.20;0.20;;;;;;;5.08;100.00;94483.25;1037650;28;20484;-64
2024/02/12 01:19:26;;;;;;;0.00;0.00;;;;;;;5.07;100.00;94479.88;1031305;28;20038;-65
2024/02/12 01:19:56;;;;;;;0.15;0.15;;;;;;;5.09;100.00;94482.22;1031651;28;20505;-65
2024/02/12 01:20:27;;;;;;;0.28;0.28;;;;;;;5.08;100.00;94478.06;1031297;28;20406;-66
2024/02/12 01:20:57;;;;;;;0.20;0.10;;;;;;;5.07;100.00;94482.50;1031781;28;20030;-65
2024/02/12 01:21:29;;;;;;;0.10;0.10;;;;;;;5.08;100.00;94481.44;1035392;28;20034;-66
2024/02/12 01:22:03;;;;;;;0.00;0.00;;;;;;;5.08;100.00;94483.25;1035521;28;20545;-66
2024/02/12 01:22:34;;;;;;;0.00;0.00;;;;;;;5.08;100.00;94483.25;1032103;28;20528;-66
2024/02/12 01:23:06;;;;;;;0.00;0.00;;;;;;;5.09;100.00;94490.00;1036223;28;20272;-65
2024/02/12 01:23:36;;;;;;;0.15;0.15;;;;;;;5.11;100.00;94487.94;1039489;28;20040;-66
2024/02/12 01:24:07;;;;;;;0.00;0.00;;;;;;;5.10;100.00;94487.16;1039508;28;20276;-66
2024/02/12 01:24:37;;;;;;;0.05;0.05;;;;;;;5.08;100.00;94486.63;1039428;28;20029;-66
2024/02/12 01:25:08;;;;;;;0.10;0.10;;;;;;;5.08;100.00;94472.88;1031582;28;20772;-65
2024/02/12 01:25:42;;;;;;;5.57;0.20;;;;;;;5.14;100.00;94485.59;1028644;28;20035;-65
2024/02/12 01:26:15;;;;;;;0.22;0.20;;;;;;;5.13;100.00;94486.66;1027401;28;20093;-66
2024/02/12 01:26:47;;;;;;;0.00;0.00;;;;;;;5.11;100.00;94487.94;1029382;28;20272;-66
2024/02/12 01:27:17;;;;;;;1.13;1.10;;;;;;;5.11;100.00;94482.75;1033387;28;20042;-66
2024/02/12 01:27:48;;;;;;;0.00;0.00;;;;;;;5.11;100.00;94482.75;1032492;28;20033;-66
2024/02/12 01:28:18;;;;;;;3.25;1.02;;;;;;;5.11;100.00;94486.13;1031290;28;20030;-65
2024/02/12 01:28:49;;;;;;;0.00;0.00;;;;;;;5.11;100.00;94480.16;1031430;28;20637;-67
2024/02/12 01:29:19;;;;;;;1.15;0.45;;;;;;;5.15;100.00;94483.78;1031481;28;20030;-65
2024/02/12 01:29:49;;;;;;;0.00;0.00;;;;;;;5.19;100.00;94480.41;1030934;28;20407;-65
2024/02/12 01:30:20;;;;;;;0.00;0.00;;;;;;;5.17;100.00;94481.72;1023352;28;20038;-65
2024/02/12 01:30:50;;;;;;;0.00;0.00;;;;;;;5.16;100.00;94487.94;1026262;28;20022;-64
2024/02/12 01:31:21;;;;;;;0.00;0.00;;;;;;;5.17;100.00;94479.91;1027426;28;20026;-66
2024/02/12 01:31:51;;;;;;;0.08;0.08;;;;;;;5.16;100.00;94480.13;1031814;28;20041;-66
2024/02/12 01:32:23;;;;;;;0.20;0.20;;;;;;;5.16;100.00;94480.13;1042709;28;20037;-66
2024/02/12 01:32:54;;;;;;;0.13;0.13;;;;;;;5.15;100.00;94481.19;1039703;28;20032;-65
2024/02/12 01:33:25;;;;;;;0.10;0.10;;;;;;;5.16;100.00;94480.13;1040781;28;20088;-65
2024/02/12 01:33:56;;;;;;;0.00;0.00;;;;;;;5.17;100.00;94481.72;1039512;28;20033;-65
2024/02/12 01:34:28;;;;;;;0.10;0.08;;;;;;;5.19;100.00;94484.81;1039236;28;20033;-66
2024/02/12 01:34:58;;;;;;;0.00;0.00;;;;;;;5.17;100.00;94484.31;1031484;28;20043;-65
2024/02/12 01:35:32;;;;;;;0.00;0.00;;;;;;;5.16;100.00;94482.75;1023316;29;20091;-66
2024/02/12 01:36:03;;;;;;;0.20;0.17;;;;;;;5.16;100.00;94485.34;1024980;28;20031;-65
2024/02/12 01:36:33;;;;;;;0.10;0.10;;;;;;;5.14;100.00;94475.22;1030548;28;20277;-66
2024/02/12 01:37:04;;;;;;;0.93;0.20;;;;;;;5.21;100.00;94487.97;1031758;28;20027;-65
2024/02/12 01:37:34;;;;;;;0.00;0.00;;;;;;;5.22;100.00;94486.91;1037153;28;20034;-65
2024/02/12 01:38:08;;;;;;;0.20;0.20;;;;;;;5.22;100.00;94481.72;1039390;28;20420;-65
2024/02/12 01:38:39;;;;;;;0.08;0.08;;;;;;;5.17;100.00;94476.53;1035505;28;20041;-65
2024/02/12 01:39:10;;;;;;;0.15;0.15;;;;;;;5.20;100.00;94481.19;1027073;28;20289;-65
2024/02/12 01:39:40;;;;;;;0.00;0.00;;;;;;;5.21;100.00;94487.97;1026733;28;20071;-63
2024/02/12 01:40:11;;;;;;;0.00;0.00;;;;;;;5.20;100.00;94478.59;1027684;28;20077;-64
2024/02/12 01:40:42;;;;;;;0.00;0.00;;;;;;;5.19;100.00;94474.41;1031887;28;20053;-66
2024/02/12 01:41:12;;;;;;;0.15;0.15;;;;;;;5.18;100.00;94478.06;1037755;28;20030;-66
2024/02/12 01:41:43;;;;;;;0.00;0.00;;;;;;;5.18;100.00;94483.28;1039678;28;20025;-65
2024/02/12 01:42:13;;;;;;;1.55;0.70;;;;;;;5.18;100.00;94478.84;1039364;28;20472;-65
2024/02/12 01:42:44;;;;;;;0.00;0.00;;;;;;;5.20;100.00;94483.81;1039446;28;20033;-65
2024/02/12 01:43:30;;;;;;;4.85;1.00;;;;;;;5.22;100.00;94480.94;1035370;28;20033;-65
2024/02/12 01:44:01;;;;;;;0.40;0.40;;;;;;;5.24;100.00;94484.84;1035372;28;20033;-65
2024/02/12 01:44:32;;;;;;;0.00;0.00;;;;;;;5.21;100.00;94482.75;1033675;28;20019;-64
2024/02/12 01:45:11;;;;;;;0.45;0.32;;;;;;;5.20;100.00;94473.41;1031291;28;20540;-65
2024/02/12 01:45:42;;;;;;;0.00;0.00;;;;;;;5.24;100.00;94479.63;1021352;29;20080;-65
2024/02/12 01:46:13;;;;;;;0.80;0.40;;;;;;;5.25;100.00;94478.59;1027446;28;20039;-65
2024/02/12 01:46:49;;;;;;;4.25;0.80;;;;;;;5.23;100.00;94475.47;1032771;28;20073;-65
2024/02/12 01:47:19;;;;;;;0.05;0.05;;;;;;;5.21;100.00;94472.34;1038243;28;20573;-66
2024/02/12 01:47:57;;;;;;;0.45;0.32;;;;;;;5.23;100.00;94485.09;1035356;28;20037;-65
2024/02/12 01:48:30;;;;;;;0.28;0.28;;;;;;;5.19;100.00;94485.59;1023822;28;20024;-64
2024/02/12 01:49:01;;;;;;;0.00;0.00;;;;;;;5.23;100.00;94478.09;1020755;29;20271;-65
2024/02/12 01:49:31;;;;;;;0.68;0.68;;;;;;;5.20;100.00;94476.00;1020138;29;20035;-66
2024/02/12 01:50:02;;;;;;;4.85;0.70;;;;;;;5.19;100.00;94479.63;1022033;28;20023;-66
2024/02/12 01:50:33;;;;;;;0.10;0.10;;;;;;;5.18;100.00;94478.06;1023672;28;20071;-66
2024/02/12 01:51:09;;;;;;;0.00;0.00;;;;;;;5.10;100.00;94470.78;1023714;28;20093;-66
2024/02/12 01:51:40;;;;;;;0.00;0.00;;;;;;;5.15;100.00;94484.56;1027535;28;20062;-66
2024/02/12 01:52:13;;;;;;;0.10;0.10;;;;;;;5.12;100.00;94481.69;1028226;28;20035;-66
2024/02/12 01:52:49;;;;;;;1.00;0.22;;;;;;;5.09;100.00;94480.38;1032779;28;20062;-66
2024/02/12 01:53:20;;;;;;;0.00;0.00;;;;;;;5.10;100.00;94486.41;1029100;28;20177;-66
2024/02/12 01:53:50;;;;;;;0.10;0.10;;;;;;;5.11;100.00;94482.75;1028456;28;20042;-65
2024/02/12 01:54:20;;;;;;;0.20;0.20;;;;;;;5.02;100.00;94479.09;1031338;28;20038;-64
2024/02/12 01:54:52;;;;;;;0.00;0.00;;;;;;;5.05;100.00;94488.97;1028858;28;20076;-65
2024/02/12 01:55:23;;;;;;;0.10;0.10;;;;;;;5.01;100.00;94493.13;1027611;28;20027;-65
2024/02/12 01:55:54;;;;;;;0.00;0.00;;;;;;;5.00;100.00;94492.38;1027103;28;20062;-68
2024/02/12 01:56:24;;;;;;;13.85;0.60;;;;;;;4.95;100.00;94485.31;1024106;28;20034;-65
2024/02/12 01:56:55;;;;;;;0.00;0.00;;;;;;;4.95;100.00;94485.31;1034195;28;20029;-64
2024/02/12 01:57:25;;;;;;;0.00;0.00;;;;;;;4.94;100.00;94494.16;1035285;28;20030;-66
2024/02/12 01:57:56;;;;;;;0.00;0.00;;;;;;;4.90;100.00;94485.31;1035218;28;20045;-66
2024/02/12 01:58:29;;;;;;;0.20;0.20;;;;;;;4.93;100.00;94490.00;1032763;28;20030;-66
2024/02/12 01:59:00;;;;;;;0.00;0.00;;;;;;;4.99;100.00;94497.81;1031275;28;20327;-65
2024/02/12 01:59:30;;;;;;;0.00;0.00;;;;;;;4.98;100.00;94489.22;1030799;28;20038;-64
2024/02/12 02:00:10;;;;;;;0.43;0.43;;;;;;;4.97;100.00;94493.66;1030927;28;20608;-65
2024/02/12 02:00:42;;;;;;;0.00;0.00;;;;;;;4.95;100.00;94490.50;1030607;28;20031;-64
2024/02/12 02:01:14;;;;;;;0.10;0.10;;;;;;;5.02;100.00;94490.25;1032847;28;20073;-65
2024/02/12 02:01:45;;;;;;;0.10;0.00;;;;;;;5.01;100.00;94487.94;1031099;28;20116;-65
2024/02/12 02:02:15;;;;;;;1.65;1.00;;;;;;;5.03;100.00;94488.44;1029034;28;20394;-66
2024/02/12 02:02:46;;;;;;;0.20;0.20;;;;;;;5.03;100.00;94489.25;1027847;28;20623;-66
2024/02/12 02:03:18;;;;;;;0.00;0.00;;;;;;;5.03;100.00;94485.84;1022297;28;20034;-64
2024/02/12 02:03:50;;;;;;;0.00;0.00;;;;;;;5.03;100.00;94485.84;1030606;28;20022;-66
2024/02/12 02:04:23;;;;;;;0.10;0.10;;;;;;;5.08;100.00;94488.47;1031691;28;20359;-66
2024/02/12 02:04:54;;;;;;;0.20;0.20;;;;;;;5.09;100.00;94490.00;1032325;28;20033;-66
2024/02/12 02:05:25;;;;;;;0.00;0.00;;;;;;;5.08;100.00;94485.88;1036013;28;20080;-66
2024/02/12 02:05:56;;;;;;;0.17;0.17;;;;;;;5.03;100.00;94484.06;1032147;28;20022;-67
2024/02/12 02:06:26;;;;;;;0.03;0.03;;;;;;;5.05;100.00;94486.38;1031717;28;20026;-65
2024/02/12 02:06:57;;;;;;;0.45;0.45;;;;;;;5.07;100.00;94492.13;1033662;28;20030;-66
2024/02/12 02:07:27;;;;;;;0.00;0.00;;;;;;;5.06;100.00;94495.72;1029474;28;20039;-66
2024/02/12 02:08:00;;;;;;;0.20;0.15;;;;;;;5.07;100.00;94492.88;1039571;28;20055;-66
2024/02/12 02:08:44;;;;;;;0.00;0.00;;;;;;;5.09;100.00;94493.38;1042729;28;20021;-65
2024/02/12 02:09:16;;;;;;;0.10;0.10;;;;;;;5.09;100.00;94490.00;1033400;28;20018;-66
2024/02/12 02:09:47;;;;;;;0.00;0.00;;;;;;;5.12;100.00;94492.88;1030775;28;20314;-65
2024/02/12 02:10:19;;;;;;;0.00;0.00;;;;;;;5.08;100.00;94483.25;1032489;28;20520;-66
2024/02/12 02:10:49;;;;;;;0.03;0.03;;;;;;;5.12;100.00;94485.06;1027794;28;20015;-65
2024/02/12 02:11:20;;;;;;;0.05;0.00;;;;;;;5.12;100.00;94486.91;1031674;28;20026;-66
2024/02/12 02:11:51;;;;;;;0.05;0.05;;;;;;;5.11;100.00;94483.53;1031174;28;20471;-65
2024/02/12 02:12:22;;;;;;;0.10;0.10;;;;;;;5.12;100.00;94492.09;1027701;28;20085;-66
2024/02/12 02:12:59;;;;;;;2.00;0.25;;;;;;;5.14;100.00;94488.22;1031341;28;20018;-65
2024/02/12 02:13:29;;;;;;;0.00;0.00;;;;;;;5.12;100.00;94485.06;1029348;28;20023;-65
2024/02/12 02:14:00;;;;;;;0.08;0.08;;;;;;;5.11;100.00;94486.13;1031140;28;20010;-65
2024/02/12 02:14:30;;;;;;;0.10;0.10;;;;;;;5.11;100.00;94487.94;1032236;28;20018;-65
2024/02/12 02:15:01;;;;;;;0.28;0.28;;;;;;;5.10;100.00;94487.16;1035353;28;20014;-66
2024/02/12 02:15:33;;;;;;;0.65;0.65;;;;;;;5.11;100.00;94487.94;1037735;28;20021;-66
2024/02/12 02:16:04;;;;;;;0.00;0.00;;;;;;;5.11;100.00;94486.13;1031671;28;20105;-65
2024/02/12 02:16:36;;;;;;;0.10;0.10;;;;;;;5.12;100.00;94481.69;1031286;28;20025;-66
2024/02/12 02:17:07;;;;;;;0.00;0.00;;;;;;;5.10;100.00;94476.78;1028637;28;20014;-65
2024/02/12 02:17:40;;;;;;;0.08;0.00;;;;;;;5.11;100.00;94483.53;1027953;28;20019;-65
2024/02/12 02:18:10;;;;;;;0.10;0.10;;;;;;;5.10;100.00;94483.78;1027764;28;20019;-66
2024/02/12 02:18:50;;;;;;;0.22;0.17;;;;;;;5.07;100.00;94482.50;1031516;28;20029;-65
2024/02/12 02:19:23;;;;;;;0.85;0.85;;;;;;;5.05;100.00;94473.38;1024842;28;20011;-65
2024/02/12 02:19:54;;;;;;;0.10;0.10;;;;;;;5.12;100.00;94486.91;1022012;28;20023;-65
2024/02/12 02:20:26;;;;;;;0.00;0.00;;;;;;;5.09;100.00;94484.81;1023567;28;20542;-65
2024/02/12 02:20:57;;;;;;;0.00;0.00;;;;;;;5.09;100.00;94484.81;1029685;28;20257;-65
2024/02/12 02:21:27;;;;;;;0.00;0.00;;;;;;;5.09;100.00;94484.81;1032118;28;20022;-65
2024/02/12 02:21:58;;;;;;;1.00;0.55;;;;;;;5.09;100.00;94482.22;1031096;28;20022;-65
2024/02/12 02:22:29;;;;;;;0.20;0.20;;;;;;;5.10;100.00;94483.78;1030772;28;20019;-65
2024/02/12 02:23:00;;;;;;;0.20;0.20;;;;;;;5.09;100.00;94477.03;1031271;28;20557;-64
2024/02/12 02:23:30;;;;;;;0.35;0.20;;;;;;;5.11;100.00;94480.16;1030835;28;20029;-65
2024/02/12 02:24:02;;;;;;;0.10;0.10;;;;;;;5.11;100.00;94480.16;1027715;28;20027;-64
2024/02/12 02:24:33;;;;;;;0.52;0.52;;;;;;;5.10;100.00;94481.19;1023710;28;20091;-65
2024/02/12 02:25:04;;;;;;;0.00;0.00;;;;;;;5.07;100.00;94481.72;1027507;28;20023;-65
2024/02/12 02:25:34;;;;;;;2.83;0.65;;;;;;;5.07;100.00;94476.50;1028539;28;20015;-65
2024/02/12 02:26:05;;;;;;;0.00;0.00;;;;;;;5.05;100.00;94479.34;1035822;28;20026;-65
2024/02/12 02:26:35;;;;;;;0.10;0.05;;;;;;;5.02;100.00;94473.91;1035825;28;20025;-65
2024/02/12 02:27:06;;;;;;;0.00;0.00;;;;;;;5.02;100.00;94474.66;1031353;28;20038;-66
2024/02/12 02:27:37;;;;;;;0.80;0.10;;;;;;;5.03;100.00;94485.84;1027472;28;20062;-65
2024/02/12 02:28:07;;;;;;;0.00;0.00;;;;;;;5.02;100.00;94473.91;1031893;28;20581;-64
2024/02/12 02:28:38;;;;;;;1.30;0.50;;;;;;;4.96;100.00;94473.91;1031911;28;20022;-66